Glenrock, Wyoming
Current Conditions -  °F | °C
As of 8:53 PM on Tuesday 25 Nov 2014 (Local Time) from KCPR Reporting Station
Light Snow Light Snow  
Wind Chill: 16°   Ceiling: 1400
Heat Index: 25°   Visibility: 1.7mi
Dew Point: 21°   Wind: 9mph
Humidity: 85%   Direction: 70°ENE
Pressure: 30.11"   Gusts: NA
Location:  42.86°N, 105.87°W
Report Text: KCPR 260353Z AUTO 07008KT 1 3/4SM -SN BR OVC014 M04/M06 A3011 RMK AO2 SLP224 P0001 T10391061
Loading
Personal Weather Stations






























Interactive Weather Map New forecast layout! Learn more

10-Day Weather Forecast

Advertisements
Track Severe Weather on mobile